sensor_id;sensor_type;location;lat;lon;timestamp;P1;durP1;ratioP1;P2;durP2;ratioP2
71298;SDS011;59083;47.974;21.722;2023-06-10T00:02:21;10.23;;;6.15;;
71298;SDS011;59083;47.974;21.722;2023-06-10T00:05:22;10.80;;;6.22;;
71298;SDS011;59083;47.974;21.722;2023-06-10T00:08:23;10.67;;;6.50;;
71298;SDS011;59083;47.974;21.722;2023-06-10T00:11:25;14.65;;;6.82;;
71298;SDS011;59083;47.974;21.722;2023-06-10T00:14:27;11.77;;;6.70;;
71298;SDS011;59083;47.974;21.722;2023-06-10T00:17:28;11.12;;;6.60;;
71298;SDS011;59083;47.974;21.722;2023-06-10T00:20:30;11.45;;;6.68;;
71298;SDS011;59083;47.974;21.722;2023-06-10T00:23:31;10.43;;;6.27;;
71298;SDS011;59083;47.974;21.722;2023-06-10T00:26:38;12.13;;;6.40;;
71298;SDS011;59083;47.974;21.722;2023-06-10T00:29:41;12.45;;;6.32;;
71298;SDS011;59083;47.974;21.722;2023-06-10T00:32:42;12.02;;;6.18;;
71298;SDS011;59083;47.974;21.722;2023-06-10T00:35:43;11.40;;;6.07;;
71298;SDS011;59083;47.974;21.722;2023-06-10T00:38:44;14.80;;;7.40;;
71298;SDS011;59083;47.974;21.722;2023-06-10T00:41:46;10.93;;;6.00;;
71298;SDS011;59083;47.974;21.722;2023-06-10T00:44:47;10.20;;;6.30;;
71298;SDS011;59083;47.974;21.722;2023-06-10T00:47:48;11.32;;;6.12;;
71298;SDS011;59083;47.974;21.722;2023-06-10T00:50:49;16.45;;;6.40;;
71298;SDS011;59083;47.974;21.722;2023-06-10T00:53:51;12.33;;;6.30;;
71298;SDS011;59083;47.974;21.722;2023-06-10T00:56:54;12.37;;;6.40;;
71298;SDS011;59083;47.974;21.722;2023-06-10T00:59:56;13.55;;;6.75;;
71298;SDS011;59083;47.974;21.722;2023-06-10T01:02:58;11.15;;;6.22;;
71298;SDS011;59083;47.974;21.722;2023-06-10T01:06:03;11.05;;;6.28;;
71298;SDS011;59083;47.974;21.722;2023-06-10T01:12:52;10.73;;;6.32;;
71298;SDS011;59083;47.974;21.722;2023-06-10T01:16:25;15.20;;;6.03;;
71298;SDS011;59083;47.974;21.722;2023-06-10T01:19:27;11.38;;;6.93;;
71298;SDS011;59083;47.974;21.722;2023-06-10T01:22:30;10.40;;;6.50;;
71298;SDS011;59083;47.974;21.722;2023-06-10T01:25:38;10.80;;;6.63;;
71298;SDS011;59083;47.974;21.722;2023-06-10T01:32:01;14.15;;;6.50;;
71298;SDS011;59083;47.974;21.722;2023-06-10T01:35:12;13.60;;;7.22;;
71298;SDS011;59083;47.974;21.722;2023-06-10T01:38:16;13.50;;;6.93;;
71298;SDS011;59083;47.974;21.722;2023-06-10T01:41:20;13.23;;;6.83;;
71298;SDS011;59083;47.974;21.722;2023-06-10T01:44:23;14.85;;;7.00;;
71298;SDS011;59083;47.974;21.722;2023-06-10T01:47:24;10.98;;;6.80;;
71298;SDS011;59083;47.974;21.722;2023-06-10T01:50:26;11.95;;;6.68;;
71298;SDS011;59083;47.974;21.722;2023-06-10T01:53:27;12.32;;;7.25;;
71298;SDS011;59083;47.974;21.722;2023-06-10T01:56:28;12.13;;;7.20;;
71298;SDS011;59083;47.974;21.722;2023-06-10T01:59:29;13.48;;;7.72;;
71298;SDS011;59083;47.974;21.722;2023-06-10T02:02:31;13.62;;;6.93;;
71298;SDS011;59083;47.974;21.722;2023-06-10T02:05:33;13.68;;;7.35;;
71298;SDS011;59083;47.974;21.722;2023-06-10T02:08:34;11.88;;;6.87;;
71298;SDS011;59083;47.974;21.722;2023-06-10T02:11:36;12.53;;;6.80;;
71298;SDS011;59083;47.974;21.722;2023-06-10T02:14:37;12.40;;;6.87;;
71298;SDS011;59083;47.974;21.722;2023-06-10T02:17:38;11.57;;;6.70;;
71298;SDS011;59083;47.974;21.722;2023-06-10T02:20:40;13.85;;;6.90;;
71298;SDS011;59083;47.974;21.722;2023-06-10T02:23:41;13.85;;;7.40;;
71298;SDS011;59083;47.974;21.722;2023-06-10T02:26:42;13.70;;;8.20;;
71298;SDS011;59083;47.974;21.722;2023-06-10T02:29:44;12.52;;;6.37;;
71298;SDS011;59083;47.974;21.722;2023-06-10T02:32:45;13.10;;;7.45;;
71298;SDS011;59083;47.974;21.722;2023-06-10T02:35:49;17.00;;;7.12;;
71298;SDS011;59083;47.974;21.722;2023-06-10T02:38:51;13.30;;;7.28;;
71298;SDS011;59083;47.974;21.722;2023-06-10T02:41:52;14.00;;;7.90;;
71298;SDS011;59083;47.974;21.722;2023-06-10T02:44:55;13.77;;;6.82;;
71298;SDS011;59083;47.974;21.722;2023-06-10T02:47:57;13.50;;;7.12;;
71298;SDS011;59083;47.974;21.722;2023-06-10T02:50:58;12.10;;;7.47;;
71298;SDS011;59083;47.974;21.722;2023-06-10T02:54:00;14.43;;;7.40;;
71298;SDS011;59083;47.974;21.722;2023-06-10T02:57:02;13.40;;;7.10;;
71298;SDS011;59083;47.974;21.722;2023-06-10T03:00:04;13.98;;;7.68;;
71298;SDS011;59083;47.974;21.722;2023-06-10T03:03:10;12.45;;;7.57;;
71298;SDS011;59083;47.974;21.722;2023-06-10T03:06:13;12.07;;;7.45;;
71298;SDS011;59083;47.974;21.722;2023-06-10T03:09:14;14.20;;;8.80;;
71298;SDS011;59083;47.974;21.722;2023-06-10T03:12:16;15.07;;;8.43;;
71298;SDS011;59083;47.974;21.722;2023-06-10T03:15:18;15.65;;;8.32;;
71298;SDS011;59083;47.974;21.722;2023-06-10T03:18:26;15.15;;;8.38;;
71298;SDS011;59083;47.974;21.722;2023-06-10T03:21:28;12.65;;;8.02;;
71298;SDS011;59083;47.974;21.722;2023-06-10T03:24:30;13.18;;;7.65;;
71298;SDS011;59083;47.974;21.722;2023-06-10T03:27:32;14.53;;;8.23;;
71298;SDS011;59083;47.974;21.722;2023-06-10T03:30:34;14.87;;;7.93;;
71298;SDS011;59083;47.974;21.722;2023-06-10T03:33:35;13.70;;;7.60;;
71298;SDS011;59083;47.974;21.722;2023-06-10T03:36:37;14.07;;;7.20;;
71298;SDS011;59083;47.974;21.722;2023-06-10T03:39:40;19.70;;;7.47;;
71298;SDS011;59083;47.974;21.722;2023-06-10T03:42:41;13.30;;;7.27;;
71298;SDS011;59083;47.974;21.722;2023-06-10T03:45:45;13.73;;;7.18;;
71298;SDS011;59083;47.974;21.722;2023-06-10T03:48:47;14.68;;;7.37;;
71298;SDS011;59083;47.974;21.722;2023-06-10T03:51:49;12.93;;;7.20;;
71298;SDS011;59083;47.974;21.722;2023-06-10T03:54:51;13.60;;;7.45;;
71298;SDS011;59083;47.974;21.722;2023-06-10T03:57:52;13.47;;;7.13;;
71298;SDS011;59083;47.974;21.722;2023-06-10T04:00:54;13.73;;;6.85;;
71298;SDS011;59083;47.974;21.722;2023-06-10T04:04:00;12.65;;;7.03;;
71298;SDS011;59083;47.974;21.722;2023-06-10T04:07:02;13.80;;;7.07;;
71298;SDS011;59083;47.974;21.722;2023-06-10T04:10:03;13.43;;;7.25;;
71298;SDS011;59083;47.974;21.722;2023-06-10T04:13:06;15.20;;;7.50;;
71298;SDS011;59083;47.974;21.722;2023-06-10T04:16:07;12.50;;;6.75;;
71298;SDS011;59083;47.974;21.722;2023-06-10T04:19:09;11.48;;;7.03;;
71298;SDS011;59083;47.974;21.722;2023-06-10T04:22:10;11.30;;;6.53;;
71298;SDS011;59083;47.974;21.722;2023-06-10T04:25:11;11.52;;;7.10;;
71298;SDS011;59083;47.974;21.722;2023-06-10T04:28:13;14.03;;;6.67;;
71298;SDS011;59083;47.974;21.722;2023-06-10T04:31:15;13.85;;;6.75;;
71298;SDS011;59083;47.974;21.722;2023-06-10T04:34:17;12.63;;;7.00;;
71298;SDS011;59083;47.974;21.722;2023-06-10T04:37:18;13.82;;;6.82;;
71298;SDS011;59083;47.974;21.722;2023-06-10T04:40:21;11.65;;;6.62;;
71298;SDS011;59083;47.974;21.722;2023-06-10T04:43:22;11.37;;;6.73;;
71298;SDS011;59083;47.974;21.722;2023-06-10T04:46:23;14.02;;;6.55;;
71298;SDS011;59083;47.974;21.722;2023-06-10T04:49:25;11.73;;;6.50;;
71298;SDS011;59083;47.974;21.722;2023-06-10T04:52:26;9.18;;;5.75;;
71298;SDS011;59083;47.974;21.722;2023-06-10T04:55:28;12.30;;;6.50;;
71298;SDS011;59083;47.974;21.722;2023-06-10T04:58:30;11.77;;;6.10;;
71298;SDS011;59083;47.974;21.722;2023-06-10T05:01:31;13.57;;;6.12;;
71298;SDS011;59083;47.974;21.722;2023-06-10T05:04:32;12.20;;;6.90;;
71298;SDS011;59083;47.974;21.722;2023-06-10T05:07:33;11.93;;;6.45;;
71298;SDS011;59083;47.974;21.722;2023-06-10T05:10:35;11.98;;;6.30;;
71298;SDS011;59083;47.974;21.722;2023-06-10T05:13:36;11.90;;;6.53;;
71298;SDS011;59083;47.974;21.722;2023-06-10T05:16:37;10.55;;;6.53;;
71298;SDS011;59083;47.974;21.722;2023-06-10T05:19:39;12.32;;;6.75;;
71298;SDS011;59083;47.974;21.722;2023-06-10T05:22:40;13.20;;;6.78;;
71298;SDS011;59083;47.974;21.722;2023-06-10T05:25:41;12.98;;;6.55;;
71298;SDS011;59083;47.974;21.722;2023-06-10T05:28:43;12.57;;;6.53;;
71298;SDS011;59083;47.974;21.722;2023-06-10T05:31:44;10.73;;;6.55;;
71298;SDS011;59083;47.974;21.722;2023-06-10T05:34:46;13.27;;;6.82;;
71298;SDS011;59083;47.974;21.722;2023-06-10T05:37:47;10.90;;;6.37;;
71298;SDS011;59083;47.974;21.722;2023-06-10T05:40:49;12.00;;;6.55;;
71298;SDS011;59083;47.974;21.722;2023-06-10T05:43:50;11.40;;;6.73;;
71298;SDS011;59083;47.974;21.722;2023-06-10T05:46:51;14.25;;;6.45;;
71298;SDS011;59083;47.974;21.722;2023-06-10T05:49:52;11.93;;;6.65;;
71298;SDS011;59083;47.974;21.722;2023-06-10T05:52:54;12.25;;;7.10;;
71298;SDS011;59083;47.974;21.722;2023-06-10T05:55:55;10.20;;;6.60;;
71298;SDS011;59083;47.974;21.722;2023-06-10T05:58:58;11.43;;;6.53;;
71298;SDS011;59083;47.974;21.722;2023-06-10T06:01:59;10.15;;;5.65;;
71298;SDS011;59083;47.974;21.722;2023-06-10T06:05:00;16.15;;;6.85;;
71298;SDS011;59083;47.974;21.722;2023-06-10T06:08:01;9.43;;;6.40;;
71298;SDS011;59083;47.974;21.722;2023-06-10T06:11:03;11.85;;;6.40;;
71298;SDS011;59083;47.974;21.722;2023-06-10T06:14:04;13.13;;;6.30;;
71298;SDS011;59083;47.974;21.722;2023-06-10T06:17:06;18.20;;;6.95;;
71298;SDS011;59083;47.974;21.722;2023-06-10T06:20:07;11.80;;;6.93;;
71298;SDS011;59083;47.974;21.722;2023-06-10T06:23:09;9.82;;;6.05;;
71298;SDS011;59083;47.974;21.722;2023-06-10T06:26:11;9.65;;;5.70;;
71298;SDS011;59083;47.974;21.722;2023-06-10T06:29:13;11.10;;;5.97;;
71298;SDS011;59083;47.974;21.722;2023-06-10T06:32:14;10.52;;;5.93;;
71298;SDS011;59083;47.974;21.722;2023-06-10T06:35:15;10.75;;;5.40;;
71298;SDS011;59083;47.974;21.722;2023-06-10T06:38:16;10.07;;;5.50;;
71298;SDS011;59083;47.974;21.722;2023-06-10T06:41:18;10.73;;;5.37;;
71298;SDS011;59083;47.974;21.722;2023-06-10T06:44:20;10.10;;;5.43;;
71298;SDS011;59083;47.974;21.722;2023-06-10T06:47:25;10.18;;;5.18;;
71298;SDS011;59083;47.974;21.722;2023-06-10T06:50:27;11.12;;;5.00;;
71298;SDS011;59083;47.974;21.722;2023-06-10T06:53:28;11.88;;;5.28;;
71298;SDS011;59083;47.974;21.722;2023-06-10T06:56:30;7.45;;;4.87;;
71298;SDS011;59083;47.974;21.722;2023-06-10T06:59:31;9.63;;;5.53;;
71298;SDS011;59083;47.974;21.722;2023-06-10T07:02:32;9.45;;;5.22;;
71298;SDS011;59083;47.974;21.722;2023-06-10T07:05:34;9.48;;;4.70;;
71298;SDS011;59083;47.974;21.722;2023-06-10T07:08:35;7.07;;;4.30;;
71298;SDS011;59083;47.974;21.722;2023-06-10T07:11:36;7.78;;;4.87;;
71298;SDS011;59083;47.974;21.722;2023-06-10T07:14:37;8.40;;;4.50;;
71298;SDS011;59083;47.974;21.722;2023-06-10T07:17:38;8.00;;;4.78;;
71298;SDS011;59083;47.974;21.722;2023-06-10T07:20:40;8.85;;;4.47;;
71298;SDS011;59083;47.974;21.722;2023-06-10T07:23:42;7.87;;;4.50;;
71298;SDS011;59083;47.974;21.722;2023-06-10T07:26:44;8.82;;;4.30;;
71298;SDS011;59083;47.974;21.722;2023-06-10T07:29:45;7.07;;;4.43;;
71298;SDS011;59083;47.974;21.722;2023-06-10T07:32:46;8.23;;;4.60;;
71298;SDS011;59083;47.974;21.722;2023-06-10T07:35:47;7.57;;;4.50;;
71298;SDS011;59083;47.974;21.722;2023-06-10T07:38:48;8.13;;;4.10;;
71298;SDS011;59083;47.974;21.722;2023-06-10T07:41:50;7.72;;;4.30;;
71298;SDS011;59083;47.974;21.722;2023-06-10T07:44:54;7.03;;;3.97;;
71298;SDS011;59083;47.974;21.722;2023-06-10T07:47:55;8.00;;;3.90;;
71298;SDS011;59083;47.974;21.722;2023-06-10T07:50:57;7.75;;;3.90;;
71298;SDS011;59083;47.974;21.722;2023-06-10T07:53:58;7.85;;;4.10;;
71298;SDS011;59083;47.974;21.722;2023-06-10T07:56:59;9.20;;;4.00;;
71298;SDS011;59083;47.974;21.722;2023-06-10T08:00:00;6.50;;;4.00;;
71298;SDS011;59083;47.974;21.722;2023-06-10T08:03:13;6.93;;;3.90;;
71298;SDS011;59083;47.974;21.722;2023-06-10T08:06:14;8.85;;;3.80;;
71298;SDS011;59083;47.974;21.722;2023-06-10T08:09:17;7.55;;;3.60;;
71298;SDS011;59083;47.974;21.722;2023-06-10T08:12:19;6.72;;;3.70;;
71298;SDS011;59083;47.974;21.722;2023-06-10T08:15:21;9.00;;;4.10;;
71298;SDS011;59083;47.974;21.722;2023-06-10T08:18:22;8.50;;;3.67;;
71298;SDS011;59083;47.974;21.722;2023-06-10T08:21:23;6.35;;;3.60;;
71298;SDS011;59083;47.974;21.722;2023-06-10T08:24:25;9.48;;;3.97;;
71298;SDS011;59083;47.974;21.722;2023-06-10T08:27:26;6.05;;;3.33;;
71298;SDS011;59083;47.974;21.722;2023-06-10T08:30:27;7.97;;;3.83;;
71298;SDS011;59083;47.974;21.722;2023-06-10T08:33:28;6.20;;;3.67;;
71298;SDS011;59083;47.974;21.722;2023-06-10T08:36:30;7.00;;;3.92;;
71298;SDS011;59083;47.974;21.722;2023-06-10T08:39:31;7.45;;;3.70;;
71298;SDS011;59083;47.974;21.722;2023-06-10T08:45:42;7.27;;;3.90;;
71298;SDS011;59083;47.974;21.722;2023-06-10T08:48:48;9.25;;;3.80;;
71298;SDS011;59083;47.974;21.722;2023-06-10T08:51:59;6.78;;;3.72;;
71298;SDS011;59083;47.974;21.722;2023-06-10T08:55:10;5.95;;;3.60;;
71298;SDS011;59083;47.974;21.722;2023-06-10T08:58:12;6.53;;;3.42;;
71298;SDS011;59083;47.974;21.722;2023-06-10T09:01:14;8.93;;;3.87;;
71298;SDS011;59083;47.974;21.722;2023-06-10T09:04:18;7.07;;;3.60;;
71298;SDS011;59083;47.974;21.722;2023-06-10T09:07:21;5.85;;;3.10;;
71298;SDS011;59083;47.974;21.722;2023-06-10T09:10:22;7.05;;;3.60;;
71298;SDS011;59083;47.974;21.722;2023-06-10T09:13:23;6.32;;;3.28;;
71298;SDS011;59083;47.974;21.722;2023-06-10T09:16:25;8.90;;;3.87;;
71298;SDS011;59083;47.974;21.722;2023-06-10T09:19:26;8.43;;;3.90;;
71298;SDS011;59083;47.974;21.722;2023-06-10T09:22:29;7.70;;;4.18;;
71298;SDS011;59083;47.974;21.722;2023-06-10T09:25:35;8.25;;;3.37;;
71298;SDS011;59083;47.974;21.722;2023-06-10T09:28:41;7.45;;;3.95;;
71298;SDS011;59083;47.974;21.722;2023-06-10T09:31:44;6.17;;;3.70;;
71298;SDS011;59083;47.974;21.722;2023-06-10T09:34:46;8.50;;;4.37;;
71298;SDS011;59083;47.974;21.722;2023-06-10T09:37:49;7.03;;;3.75;;
71298;SDS011;59083;47.974;21.722;2023-06-10T09:40:54;6.62;;;3.70;;
71298;SDS011;59083;47.974;21.722;2023-06-10T09:43:55;6.03;;;3.50;;
71298;SDS011;59083;47.974;21.722;2023-06-10T09:46:56;7.23;;;3.80;;
71298;SDS011;59083;47.974;21.722;2023-06-10T09:50:00;6.97;;;4.03;;
71298;SDS011;59083;47.974;21.722;2023-06-10T09:53:02;7.37;;;3.83;;
71298;SDS011;59083;47.974;21.722;2023-06-10T09:56:07;7.37;;;3.70;;
71298;SDS011;59083;47.974;21.722;2023-06-10T09:59:08;6.25;;;3.72;;
71298;SDS011;59083;47.974;21.722;2023-06-10T10:02:13;6.50;;;3.87;;
71298;SDS011;59083;47.974;21.722;2023-06-10T10:05:18;7.80;;;3.97;;
71298;SDS011;59083;47.974;21.722;2023-06-10T10:08:21;9.27;;;4.40;;
71298;SDS011;59083;47.974;21.722;2023-06-10T10:11:23;8.85;;;3.95;;
71298;SDS011;59083;47.974;21.722;2023-06-10T10:14:26;7.82;;;3.70;;
71298;SDS011;59083;47.974;21.722;2023-06-10T10:17:32;6.57;;;3.40;;
71298;SDS011;59083;47.974;21.722;2023-06-10T10:20:37;6.43;;;3.60;;
71298;SDS011;59083;47.974;21.722;2023-06-10T10:23:50;6.45;;;3.78;;
71298;SDS011;59083;47.974;21.722;2023-06-10T10:26:52;8.27;;;3.50;;
71298;SDS011;59083;47.974;21.722;2023-06-10T10:29:58;6.80;;;3.50;;
71298;SDS011;59083;47.974;21.722;2023-06-10T10:33:04;6.83;;;3.37;;
71298;SDS011;59083;47.974;21.722;2023-06-10T10:36:08;9.00;;;3.53;;
71298;SDS011;59083;47.974;21.722;2023-06-10T10:39:09;8.23;;;5.18;;
71298;SDS011;59083;47.974;21.722;2023-06-10T10:42:12;6.12;;;3.50;;
71298;SDS011;59083;47.974;21.722;2023-06-10T10:45:14;9.65;;;3.50;;
71298;SDS011;59083;47.974;21.722;2023-06-10T10:48:15;7.90;;;3.60;;
71298;SDS011;59083;47.974;21.722;2023-06-10T10:51:17;10.82;;;3.67;;
71298;SDS011;59083;47.974;21.722;2023-06-10T10:54:18;7.75;;;3.60;;
71298;SDS011;59083;47.974;21.722;2023-06-10T10:57:29;6.95;;;3.30;;
71298;SDS011;59083;47.974;21.722;2023-06-10T11:00:34;8.35;;;3.45;;
71298;SDS011;59083;47.974;21.722;2023-06-10T11:03:41;5.53;;;3.40;;
71298;SDS011;59083;47.974;21.722;2023-06-10T11:06:52;7.43;;;3.45;;
71298;SDS011;59083;47.974;21.722;2023-06-10T11:10:10;6.50;;;3.40;;
71298;SDS011;59083;47.974;21.722;2023-06-10T11:13:13;6.57;;;3.45;;
71298;SDS011;59083;47.974;21.722;2023-06-10T11:16:19;8.95;;;3.80;;
71298;SDS011;59083;47.974;21.722;2023-06-10T11:19:34;8.67;;;3.80;;
71298;SDS011;59083;47.974;21.722;2023-06-10T11:22:53;10.45;;;3.60;;
71298;SDS011;59083;47.974;21.722;2023-06-10T11:29:17;7.10;;;3.40;;
71298;SDS011;59083;47.974;21.722;2023-06-10T11:32:20;7.28;;;3.70;;
71298;SDS011;59083;47.974;21.722;2023-06-10T11:35:23;7.17;;;3.20;;
71298;SDS011;59083;47.974;21.722;2023-06-10T11:38:25;8.93;;;3.60;;
71298;SDS011;59083;47.974;21.722;2023-06-10T11:41:27;9.57;;;3.70;;
71298;SDS011;59083;47.974;21.722;2023-06-10T11:44:30;7.32;;;3.33;;
71298;SDS011;59083;47.974;21.722;2023-06-10T11:47:32;6.22;;;3.53;;
71298;SDS011;59083;47.974;21.722;2023-06-10T11:50:34;8.63;;;3.90;;
71298;SDS011;59083;47.974;21.722;2023-06-10T11:53:35;7.15;;;3.08;;
71298;SDS011;59083;47.974;21.722;2023-06-10T11:56:36;6.97;;;3.35;;
71298;SDS011;59083;47.974;21.722;2023-06-10T11:59:37;7.40;;;3.40;;
71298;SDS011;59083;47.974;21.722;2023-06-10T12:02:39;7.00;;;3.50;;
71298;SDS011;59083;47.974;21.722;2023-06-10T12:05:54;6.63;;;3.40;;
71298;SDS011;59083;47.974;21.722;2023-06-10T12:09:01;9.10;;;3.20;;
71298;SDS011;59083;47.974;21.722;2023-06-10T12:12:03;6.00;;;3.20;;
71298;SDS011;59083;47.974;21.722;2023-06-10T12:15:06;5.65;;;3.00;;
71298;SDS011;59083;47.974;21.722;2023-06-10T12:18:08;6.90;;;3.00;;
71298;SDS011;59083;47.974;21.722;2023-06-10T12:21:23;7.17;;;3.40;;
71298;SDS011;59083;47.974;21.722;2023-06-10T12:24:25;7.18;;;3.35;;
71298;SDS011;59083;47.974;21.722;2023-06-10T12:27:27;6.22;;;3.20;;
71298;SDS011;59083;47.974;21.722;2023-06-10T12:30:31;6.37;;;3.30;;
71298;SDS011;59083;47.974;21.722;2023-06-10T12:33:33;6.47;;;3.10;;
71298;SDS011;59083;47.974;21.722;2023-06-10T12:36:34;7.37;;;3.30;;
71298;SDS011;59083;47.974;21.722;2023-06-10T12:39:37;6.22;;;3.20;;
71298;SDS011;59083;47.974;21.722;2023-06-10T12:42:38;7.40;;;3.17;;
71298;SDS011;59083;47.974;21.722;2023-06-10T12:45:41;8.43;;;3.20;;
71298;SDS011;59083;47.974;21.722;2023-06-10T12:48:51;6.45;;;3.20;;
71298;SDS011;59083;47.974;21.722;2023-06-10T12:51:52;6.73;;;3.10;;
71298;SDS011;59083;47.974;21.722;2023-06-10T12:54:54;5.75;;;2.90;;
71298;SDS011;59083;47.974;21.722;2023-06-10T12:57:56;5.55;;;3.00;;
71298;SDS011;59083;47.974;21.722;2023-06-10T13:00:58;6.45;;;3.10;;
71298;SDS011;59083;47.974;21.722;2023-06-10T13:04:00;6.97;;;3.17;;
71298;SDS011;59083;47.974;21.722;2023-06-10T13:07:01;6.10;;;2.90;;
71298;SDS011;59083;47.974;21.722;2023-06-10T13:10:02;5.78;;;3.20;;
71298;SDS011;59083;47.974;21.722;2023-06-10T13:13:03;8.57;;;3.22;;
71298;SDS011;59083;47.974;21.722;2023-06-10T13:16:06;10.13;;;3.12;;
71298;SDS011;59083;47.974;21.722;2023-06-10T13:19:08;8.13;;;3.03;;
71298;SDS011;59083;47.974;21.722;2023-06-10T13:22:09;6.20;;;2.90;;
71298;SDS011;59083;47.974;21.722;2023-06-10T13:25:10;7.30;;;3.00;;
71298;SDS011;59083;47.974;21.722;2023-06-10T13:28:11;7.78;;;3.30;;
71298;SDS011;59083;47.974;21.722;2023-06-10T13:31:13;5.93;;;3.10;;
71298;SDS011;59083;47.974;21.722;2023-06-10T13:34:14;5.93;;;3.10;;
71298;SDS011;59083;47.974;21.722;2023-06-10T13:37:15;7.07;;;3.00;;
71298;SDS011;59083;47.974;21.722;2023-06-10T13:40:19;6.45;;;3.10;;
71298;SDS011;59083;47.974;21.722;2023-06-10T13:43:21;5.03;;;2.75;;
71298;SDS011;59083;47.974;21.722;2023-06-10T13:46:22;5.82;;;2.95;;
71298;SDS011;59083;47.974;21.722;2023-06-10T13:49:24;5.18;;;2.70;;
71298;SDS011;59083;47.974;21.722;2023-06-10T13:52:25;7.63;;;3.00;;
71298;SDS011;59083;47.974;21.722;2023-06-10T13:55:26;5.93;;;2.90;;
71298;SDS011;59083;47.974;21.722;2023-06-10T13:58:27;9.32;;;3.00;;
71298;SDS011;59083;47.974;21.722;2023-06-10T14:01:28;5.62;;;2.78;;
71298;SDS011;59083;47.974;21.722;2023-06-10T14:04:30;5.95;;;3.25;;
71298;SDS011;59083;47.974;21.722;2023-06-10T14:07:31;6.23;;;3.20;;
71298;SDS011;59083;47.974;21.722;2023-06-10T14:10:32;7.60;;;3.30;;
71298;SDS011;59083;47.974;21.722;2023-06-10T14:13:33;7.10;;;3.20;;
71298;SDS011;59083;47.974;21.722;2023-06-10T14:16:34;7.20;;;2.80;;
71298;SDS011;59083;47.974;21.722;2023-06-10T14:19:36;6.50;;;2.95;;
71298;SDS011;59083;47.974;21.722;2023-06-10T14:22:37;6.53;;;3.00;;
71298;SDS011;59083;47.974;21.722;2023-06-10T14:25:38;5.87;;;2.70;;
71298;SDS011;59083;47.974;21.722;2023-06-10T14:28:39;8.43;;;2.85;;
71298;SDS011;59083;47.974;21.722;2023-06-10T14:31:40;5.72;;;2.90;;
71298;SDS011;59083;47.974;21.722;2023-06-10T14:34:42;6.55;;;3.05;;
71298;SDS011;59083;47.974;21.722;2023-06-10T14:37:45;10.97;;;3.23;;
71298;SDS011;59083;47.974;21.722;2023-06-10T14:40:46;5.80;;;3.10;;
71298;SDS011;59083;47.974;21.722;2023-06-10T14:43:47;6.68;;;3.40;;
71298;SDS011;59083;47.974;21.722;2023-06-10T14:46:49;7.80;;;3.58;;
71298;SDS011;59083;47.974;21.722;2023-06-10T14:49:50;6.72;;;3.17;;
71298;SDS011;59083;47.974;21.722;2023-06-10T14:52:51;8.27;;;3.03;;
71298;SDS011;59083;47.974;21.722;2023-06-10T14:55:52;7.57;;;3.20;;
71298;SDS011;59083;47.974;21.722;2023-06-10T14:58:53;6.45;;;3.40;;
71298;SDS011;59083;47.974;21.722;2023-06-10T15:01:55;7.35;;;2.95;;
71298;SDS011;59083;47.974;21.722;2023-06-10T15:04:56;5.95;;;3.03;;
71298;SDS011;59083;47.974;21.722;2023-06-10T15:07:57;11.33;;;3.00;;
71298;SDS011;59083;47.974;21.722;2023-06-10T15:10:58;8.43;;;2.90;;
71298;SDS011;59083;47.974;21.722;2023-06-10T15:14:01;8.18;;;3.15;;
71298;SDS011;59083;47.974;21.722;2023-06-10T15:17:03;6.03;;;3.00;;
71298;SDS011;59083;47.974;21.722;2023-06-10T15:20:04;6.07;;;3.25;;
71298;SDS011;59083;47.974;21.722;2023-06-10T15:23:06;8.07;;;3.20;;
71298;SDS011;59083;47.974;21.722;2023-06-10T15:26:08;9.23;;;3.12;;
71298;SDS011;59083;47.974;21.722;2023-06-10T15:29:10;7.30;;;3.28;;
71298;SDS011;59083;47.974;21.722;2023-06-10T15:32:11;7.32;;;3.00;;
71298;SDS011;59083;47.974;21.722;2023-06-10T15:35:12;6.18;;;2.80;;
71298;SDS011;59083;47.974;21.722;2023-06-10T15:38:13;9.73;;;3.10;;
71298;SDS011;59083;47.974;21.722;2023-06-10T15:41:15;8.65;;;3.20;;
71298;SDS011;59083;47.974;21.722;2023-06-10T15:44:16;9.18;;;2.90;;
71298;SDS011;59083;47.974;21.722;2023-06-10T15:47:18;8.18;;;3.15;;
71298;SDS011;59083;47.974;21.722;2023-06-10T15:50:20;7.65;;;2.90;;
71298;SDS011;59083;47.974;21.722;2023-06-10T15:53:21;5.83;;;2.77;;
71298;SDS011;59083;47.974;21.722;2023-06-10T15:56:22;5.85;;;2.80;;
71298;SDS011;59083;47.974;21.722;2023-06-10T15:59:24;6.37;;;3.20;;
71298;SDS011;59083;47.974;21.722;2023-06-10T16:02:25;11.35;;;3.17;;
71298;SDS011;59083;47.974;21.722;2023-06-10T16:05:27;6.25;;;3.10;;
71298;SDS011;59083;47.974;21.722;2023-06-10T16:08:28;6.30;;;2.80;;
71298;SDS011;59083;47.974;21.722;2023-06-10T16:11:29;6.15;;;3.33;;
71298;SDS011;59083;47.974;21.722;2023-06-10T16:14:30;7.82;;;2.90;;
71298;SDS011;59083;47.974;21.722;2023-06-10T16:17:31;6.85;;;2.75;;
71298;SDS011;59083;47.974;21.722;2023-06-10T16:20:33;8.73;;;3.00;;
71298;SDS011;59083;47.974;21.722;2023-06-10T16:23:36;10.10;;;3.33;;
71298;SDS011;59083;47.974;21.722;2023-06-10T16:26:39;10.57;;;3.75;;
71298;SDS011;59083;47.974;21.722;2023-06-10T16:29:40;6.97;;;3.22;;
71298;SDS011;59083;47.974;21.722;2023-06-10T16:32:41;6.53;;;3.00;;
71298;SDS011;59083;47.974;21.722;2023-06-10T16:35:43;10.02;;;3.17;;
71298;SDS011;59083;47.974;21.722;2023-06-10T16:38:44;6.87;;;2.87;;
71298;SDS011;59083;47.974;21.722;2023-06-10T16:41:47;6.85;;;2.70;;
71298;SDS011;59083;47.974;21.722;2023-06-10T16:44:48;5.60;;;2.60;;
71298;SDS011;59083;47.974;21.722;2023-06-10T16:47:49;8.93;;;2.60;;
71298;SDS011;59083;47.974;21.722;2023-06-10T16:50:50;8.18;;;2.97;;
71298;SDS011;59083;47.974;21.722;2023-06-10T16:53:52;6.37;;;2.80;;
71298;SDS011;59083;47.974;21.722;2023-06-10T16:56:53;6.32;;;2.67;;
71298;SDS011;59083;47.974;21.722;2023-06-10T16:59:54;5.85;;;2.62;;
71298;SDS011;59083;47.974;21.722;2023-06-10T17:02:55;6.50;;;2.70;;
71298;SDS011;59083;47.974;21.722;2023-06-10T17:05:57;8.98;;;2.78;;
71298;SDS011;59083;47.974;21.722;2023-06-10T17:08:58;6.50;;;2.50;;
71298;SDS011;59083;47.974;21.722;2023-06-10T17:11:59;7.15;;;2.65;;
71298;SDS011;59083;47.974;21.722;2023-06-10T17:15:01;6.47;;;2.85;;
71298;SDS011;59083;47.974;21.722;2023-06-10T17:18:02;7.12;;;2.50;;
71298;SDS011;59083;47.974;21.722;2023-06-10T17:21:03;5.35;;;2.00;;
71298;SDS011;59083;47.974;21.722;2023-06-10T17:24:05;5.20;;;1.93;;
71298;SDS011;59083;47.974;21.722;2023-06-10T17:27:06;4.28;;;1.90;;
71298;SDS011;59083;47.974;21.722;2023-06-10T17:30:08;4.55;;;1.92;;
71298;SDS011;59083;47.974;21.722;2023-06-10T17:33:09;6.90;;;2.10;;
71298;SDS011;59083;47.974;21.722;2023-06-10T17:36:10;4.87;;;1.95;;
71298;SDS011;59083;47.974;21.722;2023-06-10T17:39:11;5.87;;;2.37;;
71298;SDS011;59083;47.974;21.722;2023-06-10T17:42:13;4.93;;;2.28;;
71298;SDS011;59083;47.974;21.722;2023-06-10T17:45:14;4.57;;;2.00;;
71298;SDS011;59083;47.974;21.722;2023-06-10T17:48:16;5.30;;;2.22;;
71298;SDS011;59083;47.974;21.722;2023-06-10T17:51:18;4.65;;;2.00;;
71298;SDS011;59083;47.974;21.722;2023-06-10T17:54:19;6.13;;;1.93;;
71298;SDS011;59083;47.974;21.722;2023-06-10T17:57:20;5.05;;;2.30;;
71298;SDS011;59083;47.974;21.722;2023-06-10T18:00:22;6.57;;;2.10;;
71298;SDS011;59083;47.974;21.722;2023-06-10T18:03:24;5.68;;;1.90;;
71298;SDS011;59083;47.974;21.722;2023-06-10T18:06:26;4.85;;;1.87;;
71298;SDS011;59083;47.974;21.722;2023-06-10T18:09:28;4.97;;;2.00;;